createdAt,value
2018-10-12T00:00:10.385Z,12.80
2018-10-12T00:02:37.618Z,13.55
2018-10-12T00:05:04.805Z,13.80
2018-10-12T00:07:31.986Z,13.62
2018-10-12T00:09:59.182Z,14.23
2018-10-12T00:12:26.366Z,14.93
2018-10-12T00:14:53.543Z,13.80
2018-10-12T00:17:20.746Z,12.45
2018-10-12T00:19:48.013Z,13.65
2018-10-12T00:22:15.188Z,13.48
2018-10-12T00:24:42.412Z,13.75
2018-10-12T00:27:09.594Z,13.78
2018-10-12T00:29:36.792Z,13.83
2018-10-12T00:32:03.982Z,14.50
2018-10-12T00:34:31.159Z,13.50
2018-10-12T00:36:58.352Z,13.55
2018-10-12T00:39:25.616Z,12.78
2018-10-12T00:41:52.875Z,13.48
2018-10-12T00:44:20.089Z,13.35
2018-10-12T00:46:47.271Z,13.15
2018-10-12T00:49:14.463Z,13.80
2018-10-12T00:51:41.672Z,12.43
2018-10-12T00:54:08.867Z,14.87
2018-10-12T00:56:36.047Z,13.00
2018-10-12T00:59:03.246Z,15.00
2018-10-12T01:01:30.422Z,15.75
2018-10-12T01:03:57.616Z,16.32
2018-10-12T01:06:24.879Z,14.70
2018-10-12T01:08:52.065Z,15.10
2018-10-12T01:11:19.251Z,13.45
2018-10-12T01:13:46.533Z,16.02
2018-10-12T01:16:13.710Z,15.43
2018-10-12T01:18:40.907Z,15.80
2018-10-12T01:21:08.188Z,15.93
2018-10-12T01:23:35.383Z,14.98
2018-10-12T01:26:02.584Z,17.48
2018-10-12T01:28:29.782Z,15.48
2018-10-12T01:30:57.014Z,16.07
2018-10-12T01:33:24.245Z,15.48
2018-10-12T01:35:51.442Z,16.65
2018-10-12T01:38:18.645Z,15.58
2018-10-12T01:40:45.863Z,17.00
2018-10-12T01:43:13.063Z,16.45
2018-10-12T01:45:40.263Z,16.60
2018-10-12T01:48:07.552Z,14.93
2018-10-12T01:50:34.752Z,15.75
2018-10-12T01:53:02.059Z,15.90
2018-10-12T01:55:29.291Z,16.42
2018-10-12T01:57:56.491Z,16.87
2018-10-12T02:00:23.711Z,17.35
2018-10-12T02:02:50.911Z,15.65
2018-10-12T02:05:18.104Z,16.75
2018-10-12T02:07:45.329Z,16.07
2018-10-12T02:10:12.527Z,17.80
2018-10-12T02:12:39.791Z,17.07
2018-10-12T02:15:07.007Z,16.02
2018-10-12T02:17:34.222Z,15.78
2018-10-12T02:20:01.416Z,17.17
2018-10-12T02:22:28.627Z,15.90
2018-10-12T02:24:55.861Z,15.05
2018-10-12T02:27:23.078Z,16.02
2018-10-12T02:29:50.279Z,17.05
2018-10-12T02:32:17.463Z,16.55
2018-10-12T02:34:44.683Z,15.03
2018-10-12T02:37:11.900Z,16.50
2018-10-12T02:39:39.147Z,17.50
2018-10-12T02:42:06.633Z,17.17
2018-10-12T02:44:33.849Z,20.20
2018-10-12T02:47:01.055Z,16.00
2018-10-12T02:49:28.240Z,16.15
2018-10-12T02:51:55.499Z,17.15
2018-10-12T02:54:22.700Z,16.30
2018-10-12T02:56:49.921Z,16.45
2018-10-12T02:59:17.106Z,16.05
2018-10-12T03:01:44.283Z,17.85
2018-10-12T03:04:11.483Z,17.15
2018-10-12T03:06:38.705Z,16.65
2018-10-12T03:09:07.324Z,16.57
2018-10-12T03:11:34.642Z,17.02
2018-10-12T03:14:01.866Z,18.37
2018-10-12T03:16:29.055Z,18.20
2018-10-12T03:18:56.242Z,19.17
2018-10-12T03:21:23.453Z,19.90
2018-10-12T03:23:50.699Z,21.23
2018-10-12T03:26:17.875Z,21.20
2018-10-12T03:28:45.094Z,20.30
2018-10-12T03:31:12.275Z,21.62
2018-10-12T03:33:39.466Z,17.65
2018-10-12T03:36:06.679Z,17.27
2018-10-12T03:38:33.877Z,20.95
2018-10-12T03:41:01.096Z,21.73
2018-10-12T03:43:28.287Z,22.30
2018-10-12T03:45:55.502Z,20.50
2018-10-12T03:48:22.874Z,21.93
2018-10-12T03:50:50.166Z,20.40
2018-10-12T03:53:17.582Z,22.37
2018-10-12T03:55:44.785Z,23.00
2018-10-12T03:58:11.972Z,21.77
2018-10-12T04:00:39.181Z,22.98
2018-10-12T04:03:06.373Z,23.10
2018-10-12T04:05:33.570Z,24.57
2018-10-12T04:08:00.793Z,23.67
2018-10-12T04:10:28.029Z,25.95
2018-10-12T04:12:55.337Z,24.63
2018-10-12T04:15:22.688Z,21.80
2018-10-12T04:17:49.911Z,23.30
2018-10-12T04:20:17.096Z,23.18
2018-10-12T04:22:44.274Z,21.95
2018-10-12T04:25:11.476Z,22.82
2018-10-12T04:27:38.846Z,21.82
2018-10-12T04:30:06.154Z,21.77
2018-10-12T04:32:33.366Z,22.15
2018-10-12T04:35:00.605Z,21.02
2018-10-12T04:37:27.820Z,20.95
2018-10-12T04:39:57.520Z,19.37
2018-10-12T04:42:24.714Z,22.42
2018-10-12T04:44:52.070Z,21.82
2018-10-12T04:47:19.911Z,22.50
2018-10-12T04:49:47.193Z,22.00
2018-10-12T04:52:14.987Z,21.97
2018-10-12T04:54:42.174Z,22.42
2018-10-12T04:57:09.350Z,22.95
2018-10-12T04:59:36.546Z,26.40
2018-10-12T05:02:03.738Z,22.90
2018-10-12T05:04:30.942Z,23.30
2018-10-12T05:06:58.160Z,24.25
2018-10-12T05:09:25.412Z,24.63
2018-10-12T05:11:52.615Z,27.55
2018-10-12T05:14:19.814Z,26.65
2018-10-12T05:16:47.015Z,26.60
2018-10-12T05:19:14.319Z,26.95
2018-10-12T05:21:41.504Z,26.87
2018-10-12T05:24:08.691Z,27.32
2018-10-12T05:26:35.895Z,29.00
2018-10-12T05:29:03.129Z,28.70
2018-10-12T05:31:30.345Z,27.37
2018-10-12T05:33:57.555Z,28.42
2018-10-12T05:36:24.770Z,26.37
2018-10-12T05:38:51.946Z,29.07
2018-10-12T05:41:19.179Z,28.05
2018-10-12T05:43:46.482Z,27.40
2018-10-12T05:46:13.605Z,27.25
2018-10-12T05:48:46.505Z,26.35
2018-10-12T05:51:14.283Z,25.20
2018-10-12T05:53:41.603Z,26.35
2018-10-12T05:56:08.799Z,26.10
2018-10-12T05:58:36.008Z,25.77
2018-10-12T06:01:03.185Z,26.45
2018-10-12T06:03:30.395Z,26.68
2018-10-12T06:05:57.604Z,25.50
2018-10-12T06:08:24.796Z,25.60
2018-10-12T06:10:51.973Z,25.80
2018-10-12T06:13:19.441Z,26.55
2018-10-12T06:15:46.680Z,25.15
2018-10-12T06:18:14.005Z,23.05
2018-10-12T06:20:42.076Z,22.67
2018-10-12T06:23:09.285Z,24.92
2018-10-12T06:25:36.733Z,25.45
2018-10-12T06:28:04.091Z,23.25
2018-10-12T06:30:31.400Z,20.50
2018-10-12T06:32:58.686Z,20.95
2018-10-12T06:35:26.563Z,21.77
2018-10-12T06:37:53.763Z,16.30
2018-10-12T06:40:20.969Z,18.67
2018-10-12T06:42:48.375Z,18.20
2018-10-12T06:45:15.576Z,22.65
2018-10-12T06:47:42.783Z,18.65
2018-10-12T06:50:10.004Z,20.25
2018-10-12T06:52:37.731Z,21.07
2018-10-12T06:55:05.315Z,18.27
2018-10-12T06:57:32.527Z,17.23
2018-10-12T06:59:59.781Z,20.30
2018-10-12T07:02:26.940Z,19.77
2018-10-12T07:04:54.138Z,19.90
2018-10-12T07:07:21.413Z,17.25
2018-10-12T07:09:48.615Z,16.15
2018-10-12T07:12:16.225Z,17.62
2018-10-12T07:14:43.525Z,20.60
2018-10-12T07:17:10.716Z,17.05
2018-10-12T07:19:38.048Z,17.85
2018-10-12T07:22:05.186Z,17.52
2018-10-12T07:24:32.358Z,17.62
2018-10-12T07:26:59.553Z,15.53
2018-10-12T07:29:26.783Z,17.10
2018-10-12T07:31:53.977Z,16.35
2018-10-12T07:34:21.436Z,17.30
2018-10-12T07:36:48.627Z,15.72
2018-10-12T07:39:15.878Z,17.07
2018-10-12T07:41:43.204Z,16.05
2018-10-12T07:44:10.396Z,18.42
2018-10-12T07:46:37.590Z,18.15
2018-10-12T07:49:04.937Z,18.12
2018-10-12T07:51:32.358Z,17.30
2018-10-12T07:53:59.576Z,17.40
2018-10-12T07:56:26.763Z,16.62
2018-10-12T07:58:53.955Z,17.80
2018-10-12T08:01:21.265Z,15.15
2018-10-12T08:03:48.446Z,15.90
2018-10-12T08:06:15.671Z,13.40
2018-10-12T08:08:42.901Z,13.70
2018-10-12T08:11:10.083Z,14.90
2018-10-12T08:13:37.321Z,14.55
2018-10-12T08:16:04.578Z,12.93
2018-10-12T08:18:31.754Z,13.48
2018-10-12T08:20:58.965Z,12.05
2018-10-12T08:23:26.143Z,11.63
2018-10-12T08:25:53.330Z,12.10
2018-10-12T08:28:20.748Z,13.62
2018-10-12T08:30:47.943Z,11.50
2018-10-12T08:33:15.163Z,12.10
2018-10-12T08:35:42.373Z,11.57
2018-10-12T08:38:09.583Z,11.73
2018-10-12T08:40:36.836Z,11.22
2018-10-12T08:43:04.019Z,11.70
2018-10-12T08:45:31.372Z,10.78
2018-10-12T08:47:58.590Z,10.43
2018-10-12T08:50:25.787Z,11.60
2018-10-12T08:52:52.985Z,11.85
2018-10-12T08:55:20.257Z,10.43
2018-10-12T08:57:47.598Z,10.00
2018-10-12T09:00:15.162Z,11.38
2018-10-12T09:02:42.389Z,12.30
2018-10-12T09:05:09.590Z,10.20
2018-10-12T09:07:36.873Z,11.15
2018-10-12T09:10:04.377Z,10.88
2018-10-12T09:12:31.573Z,10.08
2018-10-12T09:14:58.828Z,10.23
2018-10-12T09:17:26.044Z,12.07
2018-10-12T09:19:53.370Z,11.33
2018-10-12T09:22:20.734Z,10.08
2018-10-12T09:24:48.143Z,11.08
2018-10-12T09:27:15.352Z,12.50
2018-10-12T09:29:42.527Z,11.25
2018-10-12T09:32:09.749Z,11.18
2018-10-12T09:34:36.961Z,10.88
2018-10-12T09:37:04.211Z,10.70
2018-10-12T09:39:31.457Z,12.75
2018-10-12T09:41:59.013Z,10.98
2018-10-12T09:44:26.264Z,10.95
2018-10-12T09:46:53.439Z,10.25
2018-10-12T09:49:20.704Z,11.15
2018-10-12T09:51:47.920Z,11.05
2018-10-12T09:54:15.144Z,10.85
2018-10-12T09:56:45.799Z,10.70
2018-10-12T09:59:13.055Z,10.28
2018-10-12T10:01:45.684Z,9.63
2018-10-12T10:04:17.893Z,11.57
2018-10-12T10:06:45.082Z,11.85
2018-10-12T10:09:12.410Z,9.88
2018-10-12T10:11:39.659Z,11.90
2018-10-12T10:14:06.879Z,10.55
2018-10-12T10:16:34.059Z,9.55
2018-10-12T10:19:01.312Z,9.95
2018-10-12T10:21:28.515Z,9.60
2018-10-12T10:23:55.715Z,9.58
2018-10-12T10:26:22.971Z,9.13
2018-10-12T10:28:50.139Z,9.03
2018-10-12T10:31:17.361Z,8.80
2018-10-12T10:33:44.562Z,8.65
2018-10-12T10:36:11.748Z,11.95
2018-10-12T10:38:39.025Z,20.70
2018-10-12T10:41:06.262Z,12.30
2018-10-12T10:43:33.475Z,21.62
2018-10-12T10:46:00.875Z,9.63
2018-10-12T10:48:28.251Z,9.05
2018-10-12T10:50:55.796Z,11.68
2018-10-12T10:53:23.673Z,27.65
2018-10-12T10:55:50.871Z,31.42
2018-10-12T10:58:18.168Z,10.95
2018-10-12T11:00:45.651Z,17.17
2018-10-12T11:03:14.128Z,10.30
2018-10-12T11:05:41.336Z,8.28
2018-10-12T11:08:08.527Z,8.45
2018-10-12T11:10:35.756Z,13.80
2018-10-12T11:13:04.154Z,16.82
2018-10-12T11:15:31.492Z,12.65
2018-10-12T11:17:58.697Z,10.98
2018-10-12T11:20:25.889Z,30.62
2018-10-12T11:22:53.132Z,29.67
2018-10-12T11:25:20.592Z,13.68
2018-10-12T11:27:48.373Z,10.15
2018-10-12T11:30:15.767Z,5.17
2018-10-12T11:32:43.468Z,6.58
2018-10-12T11:35:10.739Z,15.93
2018-10-12T11:37:37.924Z,13.23
2018-10-12T11:40:05.123Z,6.10
2018-10-12T11:42:38.085Z,4.90
2018-10-12T11:45:05.318Z,5.57
2018-10-12T11:47:32.495Z,33.03
2018-10-12T11:49:59.781Z,6.00
2018-10-12T11:52:26.971Z,12.83
2018-10-12T11:54:54.142Z,7.77
2018-10-12T11:57:21.437Z,6.13
2018-10-12T11:59:48.633Z,7.73
2018-10-12T12:02:15.842Z,10.00
2018-10-12T12:04:43.052Z,7.87
2018-10-12T12:07:10.274Z,6.40
2018-10-12T12:09:37.472Z,4.83
2018-10-12T12:12:04.642Z,10.30
2018-10-12T12:14:31.840Z,8.10
2018-10-12T12:19:32.711Z,22.60
2018-10-12T12:21:59.921Z,13.53
2018-10-12T12:24:27.150Z,5.30
2018-10-12T12:26:54.327Z,5.00
2018-10-12T12:29:21.502Z,4.27
2018-10-12T12:31:48.787Z,11.50
2018-10-12T12:34:15.950Z,8.50
2018-10-12T12:36:43.123Z,4.60
2018-10-12T12:39:10.355Z,55.40
2018-10-12T12:41:37.547Z,51.10
2018-10-12T12:44:04.743Z,21.07
2018-10-12T12:46:31.962Z,10.10
2018-10-12T12:48:59.429Z,22.30
2018-10-12T12:51:26.375Z,6.30
2018-10-12T12:53:53.700Z,18.93
2018-10-12T12:56:20.859Z,4.70
2018-10-12T12:58:48.040Z,4.80
2018-10-12T13:01:15.238Z,4.80
2018-10-12T13:03:42.430Z,4.93
2018-10-12T13:06:09.616Z,6.00
2018-10-12T13:08:36.822Z,13.23
2018-10-12T13:11:04.042Z,24.03
2018-10-12T13:13:31.279Z,6.17
2018-10-12T13:15:58.452Z,6.13
2018-10-12T13:18:25.665Z,36.20
2018-10-12T13:20:52.870Z,14.73
2018-10-12T13:23:20.072Z,12.90
2018-10-12T13:25:47.283Z,18.67
2018-10-12T13:28:14.501Z,13.00
2018-10-12T13:30:42.088Z,17.30
2018-10-12T13:33:09.827Z,13.57
2018-10-12T13:35:37.545Z,8.90
2018-10-12T13:38:05.224Z,6.50
2018-10-12T13:40:32.861Z,5.97
2018-10-12T13:43:00.498Z,5.67
2018-10-12T13:45:28.083Z,6.07
2018-10-12T13:47:55.711Z,15.80
2018-10-12T13:50:22.957Z,9.63
2018-10-12T13:52:50.141Z,11.50
2018-10-12T13:55:17.422Z,12.00
2018-10-12T13:57:44.624Z,5.53
2018-10-12T14:00:11.860Z,7.20
2018-10-12T14:02:39.060Z,5.47
2018-10-12T14:05:06.237Z,5.00
2018-10-12T14:07:33.440Z,8.07
2018-10-12T14:10:00.635Z,8.07
2018-10-12T14:12:27.872Z,5.70
2018-10-12T14:14:55.031Z,9.70
2018-10-12T14:17:22.198Z,4.67
2018-10-12T14:19:49.441Z,5.30
2018-10-12T14:22:16.975Z,6.77
2018-10-12T14:24:44.298Z,6.50
2018-10-12T14:27:11.474Z,4.23
2018-10-12T14:29:38.639Z,6.57
2018-10-12T14:32:05.844Z,8.70
2018-10-12T14:34:33.029Z,4.70
2018-10-12T14:37:00.220Z,5.30
2018-10-12T14:39:27.416Z,6.50
2018-10-12T14:41:54.619Z,5.27
2018-10-12T14:44:21.921Z,7.40
2018-10-12T14:46:48.980Z,8.00
2018-10-12T14:49:16.299Z,6.13
2018-10-12T14:51:43.526Z,5.30
2018-10-12T14:54:10.724Z,5.97
2018-10-12T14:56:37.939Z,4.13
2018-10-12T14:59:05.383Z,3.50
2018-10-12T15:01:32.519Z,4.50
2018-10-12T15:03:59.735Z,5.97
2018-10-12T15:06:26.914Z,3.87
2018-10-12T15:08:54.087Z,4.40
2018-10-12T15:11:21.270Z,4.77
2018-10-12T15:13:48.457Z,6.00
2018-10-12T15:16:15.848Z,3.00
2018-10-12T15:18:43.053Z,3.40
2018-10-12T15:21:10.343Z,4.47
2018-10-12T15:23:37.466Z,3.63
2018-10-12T15:26:04.651Z,5.47
2018-10-12T15:28:31.839Z,3.60
2018-10-12T15:30:59.026Z,4.23
2018-10-12T15:33:26.220Z,5.73
2018-10-12T15:35:53.407Z,4.47
2018-10-12T15:38:20.653Z,4.00
2018-10-12T15:40:47.833Z,4.00
2018-10-12T15:43:15.087Z,3.73
2018-10-12T15:45:42.256Z,4.60
2018-10-12T15:48:09.461Z,4.63
2018-10-12T15:50:36.649Z,7.00
2018-10-12T15:53:04.091Z,10.53
2018-10-12T15:55:31.266Z,3.90
2018-10-12T15:57:58.468Z,17.97
2018-10-12T16:00:25.667Z,5.10
2018-10-12T16:02:52.863Z,5.20
2018-10-12T16:05:20.068Z,3.87
2018-10-12T16:07:47.246Z,3.83
2018-10-12T16:10:14.591Z,3.17
2018-10-12T16:12:41.791Z,4.10
2018-10-12T16:15:08.996Z,3.80
2018-10-12T16:17:36.162Z,4.00
2018-10-12T16:20:03.456Z,5.23
2018-10-12T16:22:30.703Z,5.17
2018-10-12T16:25:03.510Z,5.23
2018-10-12T16:27:30.705Z,3.60
2018-10-12T16:29:57.890Z,4.77
2018-10-12T16:32:25.081Z,5.70
2018-10-12T16:34:52.252Z,5.23
2018-10-12T16:37:19.433Z,6.13
2018-10-12T16:39:46.640Z,6.00
2018-10-12T16:42:14.200Z,6.85
2018-10-12T16:44:41.372Z,6.53
2018-10-12T16:47:08.570Z,6.33
2018-10-12T16:49:36.047Z,6.37
2018-10-12T16:52:03.219Z,6.33
2018-10-12T16:54:30.399Z,6.87
2018-10-12T16:56:57.596Z,6.60
2018-10-12T16:59:24.771Z,6.22
2018-10-12T17:01:52.228Z,7.90
2018-10-12T17:04:19.443Z,23.18
2018-10-12T17:06:46.643Z,13.80
2018-10-12T17:09:13.843Z,8.28
2018-10-12T17:11:41.043Z,7.03
2018-10-12T17:14:08.245Z,6.65
2018-10-12T17:16:35.435Z,5.97
2018-10-12T17:19:02.629Z,6.42
2018-10-12T17:21:29.881Z,5.65
2018-10-12T17:23:57.087Z,5.65
2018-10-12T17:26:24.270Z,5.80
2018-10-12T17:28:51.482Z,6.75
2018-10-12T17:31:18.708Z,5.30
2018-10-12T17:33:45.884Z,5.12
2018-10-12T17:36:13.068Z,6.20
2018-10-12T17:38:40.276Z,8.65
2018-10-12T17:41:12.698Z,5.80
2018-10-12T17:43:39.894Z,7.58
2018-10-12T17:46:07.119Z,8.03
2018-10-12T17:48:34.365Z,9.03
2018-10-12T17:51:01.569Z,10.35
2018-10-12T17:53:28.771Z,8.70
2018-10-12T17:55:55.957Z,10.63
2018-10-12T17:58:23.271Z,7.60
2018-10-12T18:00:50.459Z,10.13
2018-10-12T18:03:17.651Z,9.08
2018-10-12T18:05:44.925Z,10.58
2018-10-12T18:08:12.110Z,9.03
2018-10-12T18:10:39.306Z,9.65
2018-10-12T18:13:06.492Z,9.95
2018-10-12T18:15:33.731Z,10.48
2018-10-12T18:18:00.919Z,9.38
2018-10-12T18:20:28.085Z,8.38
2018-10-12T18:22:55.275Z,7.35
2018-10-12T18:25:22.462Z,9.33
2018-10-12T18:27:49.643Z,10.65
2018-10-12T18:30:16.938Z,9.83
2018-10-12T18:32:44.140Z,12.35
2018-10-12T18:35:11.332Z,16.70
2018-10-12T18:37:38.543Z,13.10
2018-10-12T18:40:05.716Z,13.60
2018-10-12T18:42:32.917Z,11.08
2018-10-12T18:45:00.246Z,10.55
2018-10-12T18:47:27.446Z,11.15
2018-10-12T18:49:54.641Z,10.30
2018-10-12T18:52:22.160Z,11.57
2018-10-12T18:54:49.327Z,9.40
2018-10-12T18:57:16.512Z,15.70
2018-10-12T18:59:43.786Z,9.13
2018-10-12T19:02:11.015Z,8.80
2018-10-12T19:04:38.323Z,10.25
2018-10-12T19:07:05.517Z,9.38
2018-10-12T19:09:32.724Z,9.25
2018-10-12T19:12:00.123Z,9.93
2018-10-12T19:14:27.331Z,11.48
2018-10-12T19:16:54.563Z,10.03
2018-10-12T19:19:21.760Z,10.72
2018-10-12T19:21:48.981Z,10.68
2018-10-12T19:24:16.194Z,11.00
2018-10-12T19:26:43.464Z,11.63
2018-10-12T19:29:10.620Z,11.63
2018-10-12T19:31:37.964Z,11.30
2018-10-12T19:34:05.014Z,13.25
2018-10-12T19:36:32.199Z,13.20
2018-10-12T19:38:59.404Z,12.40
2018-10-12T19:41:26.596Z,13.53
2018-10-12T19:43:53.888Z,11.05
2018-10-12T19:46:21.103Z,10.95
2018-10-12T19:48:48.300Z,11.10
2018-10-12T19:51:15.505Z,10.40
2018-10-12T19:53:42.699Z,10.38
2018-10-12T19:56:10.067Z,11.28
2018-10-12T19:58:37.300Z,12.30
2018-10-12T20:01:04.486Z,14.70
2018-10-12T20:03:31.667Z,13.90
2018-10-12T20:05:58.871Z,22.25
2018-10-12T20:08:26.058Z,13.72
2018-10-12T20:10:53.356Z,13.13
2018-10-12T20:13:20.552Z,11.40
2018-10-12T20:15:47.739Z,9.93
2018-10-12T20:18:14.945Z,10.15
2018-10-12T20:20:42.140Z,12.40
2018-10-12T20:23:09.318Z,13.83
2018-10-12T20:25:36.562Z,11.50
2018-10-12T20:28:03.750Z,11.50
2018-10-12T20:30:30.955Z,13.50
2018-10-12T20:32:58.188Z,10.85
2018-10-12T20:35:25.367Z,13.70
2018-10-12T20:37:52.562Z,11.40
2018-10-12T20:40:19.754Z,10.90
2018-10-12T20:42:46.971Z,11.10
2018-10-12T20:45:14.194Z,9.80
2018-10-12T20:47:41.457Z,10.08
2018-10-12T20:50:08.880Z,10.72
2018-10-12T20:52:36.131Z,11.35
2018-10-12T20:55:03.327Z,10.45
2018-10-12T20:57:30.548Z,11.85
2018-10-12T20:59:57.747Z,11.10
2018-10-12T21:02:25.025Z,11.40
2018-10-12T21:04:52.235Z,12.45
2018-10-12T21:07:19.410Z,11.40
2018-10-12T21:09:46.655Z,12.53
2018-10-12T21:12:13.856Z,12.85
2018-10-12T21:14:41.052Z,12.90
2018-10-12T21:17:08.262Z,10.32
2018-10-12T21:19:35.521Z,16.67
2018-10-12T21:22:02.719Z,22.58
2018-10-12T21:24:30.001Z,20.85
2018-10-12T21:26:57.202Z,14.63
2018-10-12T21:29:24.389Z,12.50
2018-10-12T21:31:51.656Z,12.85
2018-10-12T21:34:19.571Z,12.75
2018-10-12T21:36:46.812Z,11.12
2018-10-12T21:39:14.436Z,12.05
2018-10-12T21:41:41.640Z,11.50
2018-10-12T21:44:09.145Z,11.35
2018-10-12T21:46:36.349Z,11.60
2018-10-12T21:49:03.561Z,11.22
2018-10-12T21:51:30.746Z,11.65
2018-10-12T21:53:57.966Z,10.50
2018-10-12T21:56:25.164Z,12.37
2018-10-12T21:58:52.374Z,10.08
2018-10-12T22:01:19.556Z,9.85
2018-10-12T22:03:46.855Z,10.55
2018-10-12T22:06:14.044Z,10.48
2018-10-12T22:08:46.791Z,11.78
2018-10-12T22:11:14.004Z,11.12
2018-10-12T22:13:41.426Z,9.05
2018-10-12T22:16:08.607Z,9.50
2018-10-12T22:18:35.806Z,8.48
2018-10-12T22:21:03.016Z,9.18
2018-10-12T22:23:30.216Z,9.23
2018-10-12T22:25:57.510Z,9.68
2018-10-12T22:28:24.705Z,8.75
2018-10-12T22:30:51.921Z,9.20
2018-10-12T22:33:19.107Z,9.58
2018-10-12T22:35:46.363Z,11.00
2018-10-12T22:38:13.564Z,9.25
2018-10-12T22:40:40.743Z,9.03
2018-10-12T22:43:07.980Z,10.50
2018-10-12T22:45:35.167Z,9.40
2018-10-12T22:48:02.359Z,9.48
2018-10-12T22:50:29.627Z,8.98
2018-10-12T22:52:56.836Z,12.05
2018-10-12T22:55:24.069Z,10.80
2018-10-12T22:57:55.592Z,9.98
2018-10-12T23:00:22.874Z,9.98
2018-10-12T23:02:50.082Z,10.60
2018-10-12T23:05:17.551Z,10.38
2018-10-12T23:07:44.756Z,10.50
2018-10-12T23:10:11.984Z,9.70
2018-10-12T23:12:39.244Z,10.85
2018-10-12T23:15:06.454Z,11.83
2018-10-12T23:17:33.668Z,11.75
2018-10-12T23:20:00.899Z,12.63
2018-10-12T23:22:28.144Z,15.03
2018-10-12T23:24:55.326Z,10.70
2018-10-12T23:27:22.557Z,11.53
2018-10-12T23:29:49.797Z,12.25
2018-10-12T23:32:16.999Z,13.30
2018-10-12T23:34:44.303Z,12.90
2018-10-12T23:37:11.554Z,12.63
2018-10-12T23:39:38.742Z,12.85
2018-10-12T23:42:05.943Z,11.08
2018-10-12T23:44:33.158Z,11.28
2018-10-12T23:47:00.372Z,12.88
2018-10-12T23:49:27.613Z,12.90
2018-10-12T23:51:54.831Z,11.45
2018-10-12T23:54:22.122Z,12.50
2018-10-12T23:56:49.326Z,10.65
2018-10-12T23:59:16.539Z,12.13
